createdAt,value
2023-11-18T00:02:02.962Z,0.76
2023-11-18T00:06:06.862Z,0.76
2023-11-18T00:10:11.193Z,0.76
2023-11-18T00:14:14.759Z,0.76
2023-11-18T00:18:20.401Z,0.75
2023-11-18T00:22:23.639Z,0.75
2023-11-18T00:26:27.302Z,0.76
2023-11-18T00:30:30.653Z,0.76
2023-11-18T00:34:35.596Z,0.73
2023-11-18T00:38:39.128Z,0.73
2023-11-18T00:42:44.401Z,0.73
2023-11-18T00:46:47.635Z,0.73
2023-11-18T00:50:53.162Z,0.73
2023-11-18T00:54:55.966Z,0.73
2023-11-18T00:58:59.191Z,0.75
2023-11-18T01:03:02.333Z,0.70
2023-11-18T01:07:06.760Z,0.74
2023-11-18T01:11:10.397Z,0.71
2023-11-18T01:15:13.775Z,0.69
2023-11-18T01:19:17.015Z,0.70
2023-11-18T01:23:22.124Z,0.69
2023-11-18T01:27:25.577Z,0.70
2023-11-18T01:31:34.390Z,0.71
2023-11-18T01:35:45.155Z,0.74
2023-11-18T01:39:49.735Z,0.72
2023-11-18T01:43:54.922Z,0.73
2023-11-18T01:47:58.140Z,0.72
2023-11-18T01:52:02.935Z,0.70
2023-11-18T01:56:10.111Z,0.72
2023-11-18T02:00:14.810Z,0.66
2023-11-18T02:04:21.528Z,0.67
2023-11-18T02:08:26.033Z,0.63
2023-11-18T02:12:38.073Z,0.65
2023-11-18T02:16:43.465Z,0.68
2023-11-18T02:20:48.829Z,0.66
2023-11-18T02:24:51.953Z,0.66
2023-11-18T02:28:56.750Z,0.66
2023-11-18T02:33:07.058Z,0.70
2023-11-18T02:37:12.087Z,0.67
2023-11-18T02:41:19.998Z,0.66
2023-11-18T02:45:25.332Z,0.71
2023-11-18T02:49:29.270Z,0.69
2023-11-18T02:53:32.635Z,0.66
2023-11-18T02:57:36.229Z,0.65
2023-11-18T03:01:41.439Z,0.68
2023-11-18T03:05:44.724Z,0.67
2023-11-18T03:09:48.222Z,0.67
2023-11-18T03:13:51.619Z,0.70
2023-11-18T03:17:56.344Z,0.72
2023-11-18T03:21:59.495Z,0.75
2023-11-18T03:26:02.377Z,0.75
2023-11-18T03:30:07.721Z,0.70
2023-11-18T03:34:12.335Z,0.71
2023-11-18T03:38:15.263Z,0.68
2023-11-18T03:42:17.986Z,0.69
2023-11-18T03:46:21.073Z,0.65
2023-11-18T03:50:25.828Z,0.69
2023-11-18T03:54:28.802Z,0.65
2023-11-18T03:58:34.316Z,0.63
2023-11-18T04:02:37.712Z,0.65
2023-11-18T04:06:42.291Z,0.69
2023-11-18T04:10:45.822Z,0.67
2023-11-18T04:14:48.937Z,0.63
2023-11-18T04:18:52.211Z,0.64
2023-11-18T04:22:56.854Z,0.64
2023-11-18T04:27:00.390Z,0.65
2023-11-18T04:31:04.543Z,0.65
2023-11-18T04:35:11.167Z,0.63
2023-11-18T04:39:17.289Z,0.63
2023-11-18T04:43:28.409Z,0.61
2023-11-18T04:47:40.000Z,0.62
2023-11-18T04:51:43.227Z,0.61
2023-11-18T04:55:47.625Z,0.60
2023-11-18T04:59:50.729Z,0.58
2023-11-18T05:03:53.579Z,0.57
2023-11-18T05:07:56.610Z,0.62
2023-11-18T05:12:01.995Z,0.59
2023-11-18T05:16:05.317Z,0.52
2023-11-18T05:20:10.503Z,0.56
2023-11-18T05:24:15.147Z,0.59
2023-11-18T05:28:21.183Z,0.57
2023-11-18T05:32:24.601Z,0.58
2023-11-18T05:36:31.469Z,0.60
2023-11-18T05:40:37.372Z,0.60
2023-11-18T05:44:42.854Z,0.60
2023-11-18T05:48:47.041Z,0.57
2023-11-18T05:52:50.509Z,0.59
2023-11-18T05:56:56.249Z,0.57
2023-11-18T06:01:02.619Z,0.56
2023-11-18T06:05:07.342Z,0.55
2023-11-18T06:09:19.218Z,0.57
2023-11-18T06:13:22.914Z,0.52
2023-11-18T06:17:29.459Z,0.56
2023-11-18T06:21:32.805Z,0.55
2023-11-18T06:25:36.941Z,0.57
2023-11-18T06:29:40.704Z,0.56
2023-11-18T06:33:49.195Z,0.58
2023-11-18T06:37:53.261Z,0.55
2023-11-18T06:41:56.036Z,0.59
2023-11-18T06:45:58.740Z,0.59
2023-11-18T06:50:03.171Z,0.64
2023-11-18T06:54:10.512Z,0.67
2023-11-18T06:58:17.372Z,0.65
2023-11-18T07:02:22.566Z,0.70
2023-11-18T07:06:28.055Z,0.73
2023-11-18T07:10:30.980Z,0.75
2023-11-18T07:14:34.415Z,0.79
2023-11-18T07:18:38.066Z,0.84
2023-11-18T07:22:42.774Z,0.82
2023-11-18T07:26:46.773Z,0.83
2023-11-18T07:30:50.079Z,0.72
2023-11-18T07:34:53.107Z,0.72
2023-11-18T07:39:00.105Z,0.78
2023-11-18T07:43:04.170Z,0.82
2023-11-18T07:47:07.618Z,0.75
2023-11-18T07:51:10.647Z,0.82
2023-11-18T07:55:15.370Z,0.84
2023-11-18T07:59:19.444Z,0.86
2023-11-18T08:03:22.541Z,0.71
2023-11-18T08:07:25.473Z,0.80
2023-11-18T08:11:30.810Z,0.84
2023-11-18T08:15:33.703Z,0.85
2023-11-18T08:19:37.261Z,0.83
2023-11-18T08:23:40.173Z,1.00
2023-11-18T08:27:44.636Z,0.92
2023-11-18T08:31:48.004Z,0.98
2023-11-18T08:35:52.150Z,0.87
2023-11-18T08:39:55.240Z,0.84
2023-11-18T08:44:10.869Z,0.78
2023-11-18T08:48:21.733Z,0.74
2023-11-18T08:52:27.100Z,0.78
2023-11-18T08:56:36.192Z,0.85
2023-11-18T09:00:51.642Z,0.83
2023-11-18T09:04:56.862Z,0.88
2023-11-18T09:09:03.322Z,0.75
2023-11-18T09:13:07.279Z,0.80
2023-11-18T09:17:11.900Z,0.90
2023-11-18T09:21:17.173Z,0.84
2023-11-18T09:25:23.511Z,0.85
2023-11-18T09:29:26.403Z,0.94
2023-11-18T09:33:34.360Z,0.93
2023-11-18T09:37:38.002Z,0.91
2023-11-18T09:41:41.541Z,0.96
2023-11-18T09:45:49.118Z,1.04
2023-11-18T09:49:58.411Z,1.12
2023-11-18T09:54:04.649Z,1.25
2023-11-18T09:58:14.617Z,1.31
2023-11-18T10:02:19.976Z,1.33
2023-11-18T10:06:25.068Z,1.46
2023-11-18T10:10:38.182Z,1.47
2023-11-18T10:14:45.520Z,1.29
2023-11-18T10:18:53.358Z,1.28
2023-11-18T10:23:12.386Z,1.20
2023-11-18T10:27:17.589Z,1.25
2023-11-18T10:31:21.851Z,1.30
2023-11-18T10:35:25.040Z,1.31
2023-11-18T10:39:33.731Z,1.42
2023-11-18T10:43:37.622Z,1.45
2023-11-18T10:47:45.079Z,1.35
2023-11-18T10:51:48.814Z,1.21
2023-11-18T10:55:53.789Z,1.30
2023-11-18T11:00:04.720Z,1.22
2023-11-18T11:04:08.146Z,1.41
2023-11-18T11:08:14.413Z,1.20
2023-11-18T11:12:20.935Z,1.36
2023-11-18T11:16:30.451Z,1.57
2023-11-18T11:20:43.584Z,1.38
2023-11-18T11:25:03.913Z,1.45
2023-11-18T11:29:21.510Z,1.23
2023-11-18T11:33:41.810Z,1.25
2023-11-18T11:37:48.419Z,1.17
2023-11-18T11:41:56.008Z,1.17
2023-11-18T11:46:00.840Z,1.26
2023-11-18T11:50:11.856Z,1.31
2023-11-18T11:54:22.259Z,1.22
2023-11-18T11:58:29.665Z,1.30
2023-11-18T12:02:34.632Z,1.34
2023-11-18T12:06:45.656Z,1.33
2023-11-18T12:10:55.079Z,1.31
2023-11-18T12:15:07.349Z,1.30
2023-11-18T12:19:38.474Z,1.44
2023-11-18T12:24:23.926Z,1.47
2023-11-18T12:28:32.433Z,1.34
2023-11-18T12:33:07.095Z,1.40
2023-11-18T12:37:47.380Z,1.56
2023-11-18T12:42:07.952Z,1.45
2023-11-18T12:46:51.167Z,1.39
2023-11-18T12:50:54.149Z,1.30
2023-11-18T12:55:00.143Z,1.24
2023-11-18T12:59:07.730Z,1.15
2023-11-18T13:03:12.223Z,1.00
2023-11-18T13:07:15.320Z,1.03
2023-11-18T13:11:19.782Z,0.96
2023-11-18T13:15:25.933Z,0.90
2023-11-18T13:19:29.498Z,0.83
2023-11-18T13:23:32.836Z,0.89
2023-11-18T13:27:39.903Z,0.90
2023-11-18T13:31:42.945Z,0.83
2023-11-18T13:35:47.791Z,0.66
2023-11-18T13:39:56.860Z,0.65
2023-11-18T13:44:02.106Z,0.57
2023-11-18T13:48:05.587Z,0.56
2023-11-18T13:52:12.209Z,0.50
2023-11-18T13:56:16.865Z,0.43
2023-11-18T14:00:24.578Z,0.41
2023-11-18T14:04:29.502Z,0.47
2023-11-18T14:08:35.683Z,0.44
2023-11-18T14:12:38.615Z,0.45
2023-11-18T14:16:43.321Z,0.39
2023-11-18T14:20:48.246Z,0.40
2023-11-18T14:24:51.269Z,0.38
2023-11-18T14:28:54.227Z,0.41
2023-11-18T14:32:58.721Z,0.40
2023-11-18T14:37:02.349Z,0.42
2023-11-18T14:41:06.392Z,0.36
2023-11-18T14:45:10.925Z,0.33
2023-11-18T14:49:15.884Z,0.29
2023-11-18T14:53:19.063Z,0.28
2023-11-18T14:57:22.110Z,0.30
2023-11-18T15:01:25.257Z,0.31
2023-11-18T15:05:29.884Z,0.25
2023-11-18T15:09:33.556Z,0.25
2023-11-18T15:13:36.592Z,0.25
2023-11-18T15:17:46.304Z,0.19
2023-11-18T15:21:53.915Z,0.16
2023-11-18T15:25:58.193Z,0.14
2023-11-18T15:30:03.556Z,0.13
2023-11-18T15:34:06.726Z,0.14
2023-11-18T15:38:11.670Z,0.18
2023-11-18T15:42:15.089Z,0.19
2023-11-18T15:46:19.208Z,0.23
2023-11-18T15:50:22.378Z,0.24
2023-11-18T15:54:27.445Z,0.22
2023-11-18T15:58:30.911Z,0.24
2023-11-18T16:02:33.978Z,0.25
2023-11-18T16:06:38.589Z,0.25
2023-11-18T16:10:44.076Z,0.29
2023-11-18T16:14:48.625Z,0.27
2023-11-18T16:18:56.040Z,0.23
2023-11-18T16:22:59.139Z,0.26
2023-11-18T16:27:03.929Z,0.20
2023-11-18T16:31:08.289Z,0.20
2023-11-18T16:35:13.278Z,0.24
2023-11-18T16:39:18.915Z,0.29
2023-11-18T16:43:23.348Z,0.28
2023-11-18T16:47:26.878Z,0.25
2023-11-18T16:51:30.005Z,0.27
2023-11-18T16:55:35.169Z,0.27
2023-11-18T16:59:39.925Z,0.27
2023-11-18T17:03:43.001Z,0.27
2023-11-18T17:07:46.923Z,0.23
2023-11-18T17:11:50.667Z,0.22
2023-11-18T17:15:55.176Z,0.25
2023-11-18T17:19:58.183Z,0.20
2023-11-18T17:24:01.735Z,0.22
2023-11-18T17:28:06.203Z,0.17
2023-11-18T17:32:11.035Z,0.13
2023-11-18T17:36:14.128Z,0.12
2023-11-18T17:40:19.409Z,0.13
2023-11-18T17:44:22.731Z,0.15
2023-11-18T17:48:27.246Z,0.16
2023-11-18T17:52:30.275Z,0.09
2023-11-18T17:56:33.329Z,0.15
2023-11-18T18:00:37.536Z,0.17
2023-11-18T18:04:42.216Z,0.17
2023-11-18T18:08:45.525Z,0.18
2023-11-18T18:12:49.073Z,0.21
2023-11-18T18:16:52.051Z,0.14
2023-11-18T18:20:56.543Z,0.18
2023-11-18T18:24:59.717Z,0.14
2023-11-18T18:29:02.697Z,0.17
2023-11-18T18:33:06.733Z,0.20
2023-11-18T18:37:11.584Z,0.20
2023-11-18T18:41:15.364Z,0.19
2023-11-18T18:45:19.687Z,0.14
2023-11-18T18:49:22.959Z,0.16
2023-11-18T18:53:28.119Z,0.13
2023-11-18T18:57:31.511Z,0.10
2023-11-18T19:01:34.718Z,0.07
2023-11-18T19:05:37.833Z,0.12
2023-11-18T19:09:43.045Z,0.16
2023-11-18T19:13:46.180Z,0.17
2023-11-18T19:17:49.102Z,0.19
2023-11-18T19:21:52.570Z,0.18
2023-11-18T19:25:57.076Z,0.16
2023-11-18T19:30:00.597Z,0.11
2023-11-18T19:34:03.681Z,0.11
2023-11-18T19:38:08.378Z,0.10
2023-11-18T19:42:13.399Z,0.09
2023-11-18T19:46:17.510Z,0.12
2023-11-18T19:54:26.918Z,0.14
2023-11-18T19:58:31.322Z,0.14
2023-11-18T20:02:34.440Z,0.17
2023-11-18T20:06:37.652Z,0.15
2023-11-18T20:10:40.637Z,0.10
2023-11-18T20:14:45.559Z,0.09
2023-11-18T20:18:49.077Z,0.05
2023-11-18T20:22:55.806Z,0.08
2023-11-18T20:27:00.102Z,0.05
2023-11-18T20:31:05.737Z,0.06
2023-11-18T20:35:09.962Z,0.02
2023-11-18T20:39:18.375Z,0.03
2023-11-18T20:43:21.859Z,0.01
2023-11-18T20:47:26.688Z,0.02
2023-11-18T20:51:30.171Z,0.01
2023-11-18T20:55:33.612Z,-0.01
2023-11-18T20:59:36.919Z,0.06
2023-11-18T21:03:41.850Z,0.06
2023-11-18T21:07:45.802Z,0.06
2023-11-18T21:11:49.157Z,0.09
2023-11-18T21:15:52.285Z,0.09
2023-11-18T21:19:57.644Z,0.07
2023-11-18T21:24:04.274Z,0.09
2023-11-18T21:28:07.355Z,0.03
2023-11-18T21:32:12.404Z,0.02
2023-11-18T21:36:19.115Z,0.01
2023-11-18T21:40:25.936Z,0.04
2023-11-18T21:44:29.224Z,0.01
2023-11-18T21:48:32.366Z,0.06
2023-11-18T21:52:37.460Z,0.08
2023-11-18T21:56:42.572Z,0.07
2023-11-18T22:00:45.951Z,0.07
2023-11-18T22:04:49.119Z,0.05
2023-11-18T22:08:53.704Z,0.06
2023-11-18T22:12:57.990Z,0.12
2023-11-18T22:17:00.987Z,0.17
2023-11-18T22:21:04.842Z,0.19
2023-11-18T22:25:10.042Z,0.15
2023-11-18T22:29:13.137Z,0.15
2023-11-18T22:33:25.185Z,0.17
2023-11-18T22:37:28.560Z,0.17
2023-11-18T22:41:33.279Z,0.18
2023-11-18T22:45:38.366Z,0.15
2023-11-18T22:49:42.017Z,0.15
2023-11-18T22:53:45.093Z,0.11
2023-11-18T22:57:49.472Z,0.07
2023-11-18T23:01:52.679Z,0.09
2023-11-18T23:05:55.656Z,0.04
2023-11-18T23:09:59.494Z,0.06
2023-11-18T23:14:04.857Z,0.13
2023-11-18T23:18:09.021Z,0.11
2023-11-18T23:22:12.461Z,0.12
2023-11-18T23:26:15.597Z,0.15
2023-11-18T23:30:22.344Z,0.18
2023-11-18T23:34:30.825Z,0.16
2023-11-18T23:38:33.757Z,0.16
2023-11-18T23:42:36.982Z,0.09
2023-11-18T23:46:41.224Z,0.13
2023-11-18T23:50:44.293Z,0.18
2023-11-18T23:54:49.378Z,0.22
2023-11-18T23:58:52.624Z,0.19
